This is the latest recevied weather packets stored in our database for station/object DM4XI-13. If no packets are shown the sender has not sent any weather packets the latest 10 day(s).
| Time | Temp. | Humidity | Pressure | Rain* | Wind** | Luminosity | Snow |
|---|---|---|---|---|---|---|---|
| 1777793779 | 17.78° C | 46% | 1014.3 hPa | 0 mm | 0.45 m/s, 181° | 321 W/m² | - |
| 1777793718 | 17.78° C | 45% | 1014.3 hPa | 0 mm | 0.45 m/s, 180° | 318 W/m² | - |
| 1777793657 | 17.78° C | 46% | 1014.2 hPa | 0 mm | 0 m/s | 328 W/m² | - |
| 1777793596 | 17.22° C | 45% | 1014.2 hPa | 0 mm | 0.45 m/s, 194° | 329 W/m² | - |
| 1777793535 | 17.22° C | 47% | 1014.2 hPa | 0 mm | 0 m/s | 324 W/m² | - |
| 1777793474 | 17.22° C | 47% | 1014.3 hPa | 0 mm | 0 m/s | 323 W/m² | - |
| 1777793413 | 17.22° C | 48% | 1014.1 hPa | 0 mm | 0 m/s | 323 W/m² | - |
| 1777793352 | 17.22° C | 47% | 1014.3 hPa | 0 mm | 0 m/s | 327 W/m² | - |
| 1777793283 | 17.22° C | 47% | 1014.4 hPa | 0 mm | 0.45 m/s, 236° | 325 W/m² | - |
| 1777793222 | 16.67° C | 48% | 1014.3 hPa | 0 mm | 0.45 m/s, 213° | 310 W/m² | - |
| 1777793161 | 16.67° C | 50% | 1014.3 hPa | 0 mm | 0 m/s | 314 W/m² | - |
| 1777793100 | 16.67° C | 50% | 1014.3 hPa | 0 mm | 0 m/s | 317 W/m² | - |
| 1777793039 | 16.67° C | 50% | 1014.2 hPa | 0 mm | 0.45 m/s, 244° | 311 W/m² | - |
| 1777792978 | 16.67° C | 50% | 1014.3 hPa | 0 mm | 0.45 m/s, 214° | 310 W/m² | - |
| 1777792917 | 16.67° C | 50% | 1014.3 hPa | 0 mm | 0 m/s | 305 W/m² | - |
| 1777792856 | 16.67° C | 49% | 1014.3 hPa | 0 mm | 0.89 m/s, 279° | 304 W/m² | - |
| 1777792795 | 16.67° C | 49% | 1014.3 hPa | 0 mm | 0.45 m/s, 153° | 114 W/m² | - |
| 1777792734 | 17.22° C | 48% | 1014.3 hPa | 0 mm | 0.45 m/s, 230° | 287 W/m² | - |
| 1777792673 | 16.67° C | 48% | 1014.3 hPa | 0 mm | 0.45 m/s, 214° | 299 W/m² | - |
| 1777792612 | 16.67° C | 49% | 1014.4 hPa | 0 mm | 0 m/s | 304 W/m² | - |
| 1777792550 | 16.67° C | 49% | 1014.3 hPa | 0 mm | 0.45 m/s, 203° | 299 W/m² | - |
| 1777792490 | 16.67° C | 49% | 1014.3 hPa | 0 mm | 0.45 m/s, 195° | 282 W/m² | - |
| 1777792429 | 16.67° C | 49% | 1014.3 hPa | 0 mm | 0.45 m/s, 227° | 283 W/m² | - |
| 1777792368 | 16.67° C | 49% | 1014.2 hPa | 0 mm | 0 m/s | 136 W/m² | - |
| 1777792307 | 16.67° C | 48% | 1014.4 hPa | 0 mm | 0 m/s | 277 W/m² | - |
* Rain latest hour (hover to see other rain measurements)
** Current wind speed in m/s (hover to see current wind gust speed)